Archival Weather

Abadan

Abadan, Iran (OIAA)

Report from: Wednesday, December 6, 2023 8:00 PM UTC
Current time: Sunday, February 25, 2024 8:54 PM UTC

Current weather – Weather history – Daily summaries
Weather forecast

Temperature14.0°C (57.2°F)
Dew point9.0°C (48.2°F)
Winds 2 kts (1 m/s, 2.3 mph) Southeast (140°)
Clouds Sky clear
Altimeter30.03 in.Hg (1017 mB)
Relative humidity72 %
Density altitude-82 ft. (-25 m)
Remarks Ceiling and visibility OK
Flight conditions Visual Meteorological Conditions
Raw dataOIAA 062000Z 14002KT CAVOK 14/09 Q1017
An error has occurred. This application may no longer respond until reloaded. Reload 🗙